Time;durP1;ratioP1;P1;durP2;ratioP2;P2;SDS_P1;SDS_P2;PMS_P1;PMS_P2;Temp;Humidity;BMP_temperature;BMP_pressure;BME280_temperature;BME280_humidity;BME280_pressure;Samples;Min_cycle;Max_cycle;Signal;HPM_P1;HPM_P2
2021/07/28 00:01:34;;;;;;;5.15;4.13;;;;;;;24.23;64.47;100372.50;3564044;40;20396;-72
2021/07/28 00:04:00;;;;;;;5.07;4.40;;;;;;;24.35;64.31;100374.97;3553668;40;20030;-69
2021/07/28 00:06:25;;;;;;;5.53;4.15;;;;;;;24.50;63.61;100370.34;3563751;40;20052;-69
2021/07/28 00:08:51;;;;;;;4.80;4.28;;;;;;;24.44;64.49;100363.88;3554924;40;20031;-71
2021/07/28 00:11:17;;;;;;;7.35;4.25;;;;;;;24.16;64.94;100366.97;3565250;40;20105;-71
2021/07/28 00:13:45;;;;;;;4.90;4.20;;;;;;;24.34;64.92;100362.09;3565708;40;20037;-72
2021/07/28 00:16:13;;;;;;;6.13;4.40;;;;;;;24.04;65.78;100362.72;3565359;40;20393;-68
2021/07/28 00:24:08;;;;;;;7.68;4.00;;;;;;;23.90;66.16;100368.13;3565151;40;20037;-72
2021/07/28 00:26:34;;;;;;;11.02;4.20;;;;;;;23.95;66.25;100366.00;3572694;40;20026;-71
2021/07/28 00:28:59;;;;;;;10.80;4.30;;;;;;;24.37;64.38;100352.28;3554760;40;20041;-71
2021/07/28 00:33:58;;;;;;;5.85;4.28;;;;;;;24.49;64.16;100345.28;3574632;40;20128;-71
2021/07/28 00:36:23;;;;;;;6.30;4.45;;;;;;;24.01;66.48;100342.97;3578578;40;20319;-70
2021/07/28 00:38:49;;;;;;;7.55;3.95;;;;;;;24.07;65.68;100347.72;3591853;40;20059;-70
2021/07/28 00:41:15;;;;;;;9.23;4.35;;;;;;;24.01;66.70;100347.31;3595117;40;20041;-72
2021/07/28 00:43:41;;;;;;;8.57;4.13;;;;;;;24.02;66.70;100344.66;3594939;40;20476;-70
2021/07/28 00:46:06;;;;;;;6.93;4.25;;;;;;;24.32;65.43;100344.03;3594373;40;20025;-71
2021/07/28 00:48:33;;;;;;;8.57;4.38;;;;;;;23.99;67.39;100350.06;3594546;40;20402;-70
2021/07/28 00:50:59;;;;;;;9.90;4.60;;;;;;;23.76;67.08;100358.78;3584082;40;20033;-70
2021/07/28 00:53:25;;;;;;;7.22;4.55;;;;;;;24.35;66.15;100351.59;3596712;40;20043;-70
2021/07/28 00:55:53;;;;;;;6.75;4.35;;;;;;;23.94;66.46;100354.78;3597048;40;20032;-71
2021/07/28 00:58:20;;;;;;;8.10;4.53;;;;;;;23.68;67.25;100353.34;3585220;40;20049;-70
2021/07/28 01:00:47;;;;;;;10.40;4.95;;;;;;;23.96;66.80;100358.09;3592638;40;20024;-69
2021/07/28 01:03:13;;;;;;;7.07;4.40;;;;;;;24.07;66.56;100352.06;3594666;40;20312;-70
2021/07/28 01:05:40;;;;;;;7.28;4.47;;;;;;;23.81;66.99;100345.47;3595041;40;20028;-71
2021/07/28 01:08:06;;;;;;;5.97;4.47;;;;;;;24.21;66.51;100338.00;3585096;40;20081;-69
2021/07/28 01:10:33;;;;;;;6.65;4.50;;;;;;;23.88;67.89;100338.84;3583650;40;20045;-70
2021/07/28 01:12:59;;;;;;;5.70;4.30;;;;;;;24.14;67.05;100344.63;3593382;40;20496;-69
2021/07/28 01:18:01;;;;;;;7.70;4.40;;;;;;;23.69;67.17;100334.22;3593903;40;20072;-71
2021/07/28 01:20:39;;;;;;;5.78;4.40;;;;;;;23.59;67.72;100341.06;3597887;40;20377;-70
2021/07/28 01:23:07;;;;;;;9.85;4.70;;;;;;;24.02;66.32;100336.88;3572687;40;20063;-68
2021/07/28 01:25:35;;;;;;;5.13;4.50;;;;;;;23.99;67.65;100338.81;3571829;40;20033;-70
2021/07/28 01:28:02;;;;;;;4.50;4.05;;;;;;;24.08;66.59;100335.56;3571832;40;20034;-69
2021/07/28 01:30:29;;;;;;;6.38;4.65;;;;;;;23.86;67.41;100333.78;3571021;40;20034;-69
2021/07/28 01:32:57;;;;;;;6.15;4.50;;;;;;;23.63;67.46;100336.47;3570792;40;20034;-71
2021/07/28 01:35:24;;;;;;;5.35;4.47;;;;;;;24.11;65.90;100334.50;3571092;40;20068;-72
2021/07/28 01:37:51;;;;;;;7.63;4.55;;;;;;;24.13;66.34;100333.41;3571352;40;20041;-70
2021/07/28 01:40:17;;;;;;;7.18;4.60;;;;;;;24.12;65.92;100336.97;3569244;40;20061;-69
2021/07/28 01:42:45;;;;;;;9.98;4.60;;;;;;;23.78;67.58;100340.50;3571420;40;20029;-70
2021/07/28 01:45:11;;;;;;;6.55;4.70;;;;;;;23.84;67.31;100337.41;3571684;40;20026;-72
2021/07/28 01:47:38;;;;;;;5.25;4.20;;;;;;;23.65;67.89;100340.59;3572486;40;20034;-70
2021/07/28 01:50:07;;;;;;;5.32;4.32;;;;;;;23.55;67.71;100344.81;3571763;40;20470;-70
2021/07/28 01:52:34;;;;;;;5.78;4.40;;;;;;;23.55;67.91;100341.44;3572723;40;20131;-70
2021/07/28 01:55:00;;;;;;;8.27;4.55;;;;;;;23.33;68.94;100334.44;3582490;40;20102;-69
2021/07/28 01:57:27;;;;;;;6.43;4.95;;;;;;;23.59;68.19;100338.47;3593907;40;20155;-70
2021/07/28 01:59:52;;;;;;;6.07;4.63;;;;;;;23.25;69.85;100334.94;3594021;40;20029;-69
2021/07/28 02:02:18;;;;;;;9.20;4.57;;;;;;;22.96;71.40;100335.44;3595081;40;20043;-70
2021/07/28 02:04:44;;;;;;;6.55;4.70;;;;;;;23.27;70.26;100340.03;3594042;40;20043;-68
2021/07/28 02:07:09;;;;;;;6.53;5.53;;;;;;;23.34;69.19;100333.47;3582891;40;20032;-70
2021/07/28 02:09:37;;;;;;;7.88;5.43;;;;;;;23.57;69.42;100331.75;3592835;40;20190;-70
2021/07/28 02:12:03;;;;;;;7.13;5.40;;;;;;;22.88;71.28;100336.00;3582501;40;20128;-70
2021/07/28 02:14:29;;;;;;;8.73;5.05;;;;;;;22.86;71.29;100337.06;3593662;40;20103;-70
2021/07/28 02:16:56;;;;;;;9.35;4.95;;;;;;;22.71;71.53;100330.41;3597212;40;20334;-70
2021/07/28 02:19:21;;;;;;;8.70;4.82;;;;;;;22.44;71.95;100328.81;3598693;40;20313;-70
2021/07/28 02:21:48;;;;;;;7.55;5.43;;;;;;;22.60;71.64;100335.53;3595566;40;20036;-71
2021/07/28 02:24:14;;;;;;;10.13;5.15;;;;;;;22.73;71.04;100334.53;3592731;40;20036;-70
2021/07/28 02:26:39;;;;;;;6.32;5.40;;;;;;;22.14;73.48;100341.34;3591978;40;20032;-69
2021/07/28 02:29:05;;;;;;;8.00;5.05;;;;;;;22.46;72.81;100333.06;3592112;40;20040;-71
2021/07/28 02:31:30;;;;;;;6.93;5.35;;;;;;;22.35;73.53;100344.19;3584338;40;20515;-70
2021/07/28 02:39:06;;;;;;;6.85;5.00;;;;;;;22.48;72.82;100331.19;3584778;40;20439;-71
2021/07/28 02:41:32;;;;;;;8.30;4.70;;;;;;;22.51;71.82;100333.56;3575788;40;20040;-70
2021/07/28 02:43:57;;;;;;;6.95;4.80;;;;;;;22.76;71.64;100334.31;3572019;40;20033;-70
2021/07/28 02:46:23;;;;;;;6.95;5.15;;;;;;;22.67;71.36;100327.22;3572903;40;20038;-71
2021/07/28 02:48:49;;;;;;;8.05;5.35;;;;;;;22.64;71.86;100331.78;3572955;40;20403;-69
2021/07/28 02:51:14;;;;;;;8.43;5.60;;;;;;;22.59;71.95;100328.69;3572220;40;20033;-70
2021/07/28 02:53:40;;;;;;;6.90;4.90;;;;;;;22.85;71.03;100325.03;3562594;40;20034;-74
2021/07/28 02:56:06;;;;;;;7.85;5.47;;;;;;;22.45;72.27;100329.66;3576477;40;20045;-70
2021/07/28 02:58:31;;;;;;;7.90;5.20;;;;;;;22.38;72.76;100329.25;3576566;40;20029;-71
2021/07/28 03:00:57;;;;;;;7.20;5.47;;;;;;;22.69;72.33;100335.69;3576918;40;20400;-70
2021/07/28 03:03:23;;;;;;;7.85;5.32;;;;;;;22.70;72.13;100331.34;3563860;40;20033;-70
2021/07/28 03:05:50;;;;;;;7.00;5.20;;;;;;;22.38;73.04;100334.44;3565074;40;20042;-70
2021/07/28 03:08:16;;;;;;;7.65;5.40;;;;;;;22.84;71.04;100336.38;3575117;40;20079;-75
2021/07/28 03:10:43;;;;;;;9.38;5.30;;;;;;;22.84;71.02;100339.75;3564844;40;20050;-70
2021/07/28 03:13:08;;;;;;;6.80;4.90;;;;;;;22.55;71.60;100337.59;3577928;40;20092;-71
2021/07/28 03:15:35;;;;;;;10.50;5.80;;;;;;;22.27;73.47;100343.91;3569777;40;20050;-71
2021/07/28 03:18:01;;;;;;;8.82;5.88;;;;;;;22.18;73.78;100339.38;3568355;40;20511;-70
2021/07/28 03:20:27;;;;;;;7.07;5.80;;;;;;;22.49;72.29;100341.44;3576468;40;20046;-70
2021/07/28 03:22:52;;;;;;;8.77;5.82;;;;;;;22.36;73.22;100349.25;3565541;40;20030;-71
2021/07/28 03:25:19;;;;;;;10.18;5.80;;;;;;;22.31;72.99;100348.75;3576368;40;20045;-70
2021/07/28 03:27:44;;;;;;;10.02;5.90;;;;;;;22.14;74.51;100351.72;3567418;40;20510;-71
2021/07/28 03:30:10;;;;;;;10.13;5.90;;;;;;;22.53;72.60;100355.00;3575829;40;20049;-69
2021/07/28 03:32:37;;;;;;;7.00;6.20;;;;;;;22.25;74.16;100356.13;3568123;40;20038;-71
2021/07/28 03:35:04;;;;;;;7.38;6.00;;;;;;;22.62;73.21;100350.03;3581025;40;20108;-71
2021/07/28 03:37:30;;;;;;;9.02;6.00;;;;;;;22.23;73.91;100355.41;3564434;40;20037;-72
2021/07/28 03:40:02;;;;;;;11.93;6.35;;;;;;;22.66;72.05;100356.66;3575510;40;20375;-70
2021/07/28 03:42:29;;;;;;;8.23;6.13;;;;;;;22.40;73.04;100353.28;3593910;40;20020;-71
2021/07/28 03:44:56;;;;;;;12.85;6.20;;;;;;;23.28;70.03;100360.69;3595658;40;20044;-71
2021/07/28 03:47:22;;;;;;;9.65;6.03;;;;;;;23.38;69.24;100363.44;3596387;40;20403;-72
2021/07/28 03:49:48;;;;;;;10.40;6.47;;;;;;;22.80;71.32;100361.66;3582561;40;20107;-70
2021/07/28 03:52:13;;;;;;;9.27;6.95;;;;;;;22.81;71.43;100362.50;3590446;40;20032;-69
2021/07/28 03:54:39;;;;;;;9.60;7.45;;;;;;;22.89;71.50;100365.38;3590056;40;20447;-67
2021/07/28 03:57:06;;;;;;;10.50;7.28;;;;;;;23.36;70.10;100362.72;3589937;40;20096;-68
2021/07/28 03:59:31;;;;;;;12.35;7.10;;;;;;;23.24;70.85;100367.03;3589842;40;20128;-68
2021/07/28 04:01:57;;;;;;;11.80;6.88;;;;;;;22.39;72.91;100372.38;3590675;40;20033;-69
2021/07/28 04:04:23;;;;;;;12.18;7.78;;;;;;;23.04;70.56;100362.47;3592558;40;20043;-69
2021/07/28 04:06:48;;;;;;;15.65;9.43;;;;;;;22.66;71.93;100353.25;3593435;40;20406;-69
2021/07/28 04:09:14;;;;;;;18.40;10.50;;;;;;;22.89;71.87;100362.78;3597142;40;20084;-70
2021/07/28 04:11:39;;;;;;;18.77;11.45;;;;;;;23.16;71.12;100363.34;3591259;40;20065;-70
2021/07/28 04:14:05;;;;;;;17.83;11.50;;;;;;;23.06;71.99;100362.38;3599440;40;20039;-71
2021/07/28 04:16:31;;;;;;;21.20;14.65;;;;;;;23.32;70.32;100361.31;3589683;40;20122;-70
2021/07/28 04:18:56;;;;;;;21.52;12.52;;;;;;;23.63;70.58;100362.44;3585585;40;20307;-70
2021/07/28 04:21:22;;;;;;;13.13;9.70;;;;;;;23.18;70.22;100353.69;3594942;40;20029;-69
2021/07/28 04:23:47;;;;;;;19.33;10.48;;;;;;;23.40;70.26;100366.75;3586051;40;20035;-71
2021/07/28 04:26:14;;;;;;;14.75;9.63;;;;;;;22.85;71.75;100367.38;3603084;40;20043;-67
2021/07/28 04:28:40;;;;;;;15.02;9.15;;;;;;;23.27;70.29;100366.00;3594145;40;20039;-69
2021/07/28 04:31:05;;;;;;;18.17;9.75;;;;;;;23.49;69.56;100360.91;3599210;40;20435;-68
2021/07/28 04:33:31;;;;;;;15.30;9.85;;;;;;;23.43;69.82;100363.94;3601571;40;20032;-69
2021/07/28 04:35:57;;;;;;;20.08;10.63;;;;;;;23.99;67.83;100365.63;3599600;40;20046;-76
2021/07/28 04:38:23;;;;;;;21.63;11.20;;;;;;;23.89;68.82;100359.50;3598766;40;20039;-69
2021/07/28 04:40:52;;;;;;;23.25;11.18;;;;;;;23.79;69.21;100368.13;3582650;40;20061;-71
2021/07/28 04:48:39;;;;;;;16.73;10.13;;;;;;;24.24;67.82;100362.00;3650394;23;20053;-71
2021/07/28 04:58:31;;;;;;;12.50;8.63;;;;;;;24.73;66.34;100356.38;3663963;23;20825;-75
2021/07/28 05:03:36;;;;;;;13.55;8.10;;;;;;;24.66;66.31;100356.00;3670735;23;20128;-72
2021/07/28 05:06:02;;;;;;;11.95;7.78;;;;;;;24.98;64.91;100350.81;1358953;23;20255;-74
2021/07/28 05:08:31;;;;;;;12.40;8.05;;;;;;;25.14;63.15;100356.41;3677054;23;20042;31
2021/07/28 05:18:22;;;;;;;9.32;7.35;;;;;;;25.81;61.65;100354.25;1187735;23;20203;-74
2021/07/28 05:23:22;;;;;;;16.77;8.55;;;;;;;26.21;61.10;100343.84;3581169;40;20037;-71
2021/07/28 05:40:48;;;;;;;9.52;6.03;;;;;;;27.30;55.71;100338.28;3571030;40;20062;-72
2021/07/28 05:45:42;;;;;;;9.18;6.38;;;;;;;27.60;55.05;100349.53;3571733;40;20062;-72
2021/07/28 05:50:39;;;;;;;9.85;6.32;;;;;;;26.96;56.02;100339.72;3582806;40;20048;-72
2021/07/28 05:58:16;;;;;;;10.07;6.60;;;;;;;27.93;54.87;100344.59;3657658;23;20065;-72
2021/07/28 06:00:50;;;;;;;10.33;6.53;;;;;;;27.64;55.25;100346.50;3601398;23;20050;-72
2021/07/28 06:03:41;;;;;;;10.98;6.55;;;;;;;28.32;54.54;100339.19;3689624;23;20044;-73
2021/07/28 06:08:35;;;;;;;13.18;6.72;;;;;;;28.07;53.90;100333.66;3601017;40;20057;-70
2021/07/28 06:11:00;;;;;;;10.60;5.82;;;;;;;28.14;54.38;100331.31;3601990;39;20029;-71
2021/07/28 06:13:27;;;;;;;9.10;5.30;;;;;;;28.80;51.99;100332.66;3602357;40;20033;-72
2021/07/28 06:15:53;;;;;;;5.90;5.30;;;;;;;28.75;51.59;100329.66;3603161;39;20294;-75
2021/07/28 06:29:41;;;;;;;10.98;6.40;;;;;;;29.77;49.05;100309.78;3633079;23;20099;-73
2021/07/28 06:34:35;;;;;;;12.35;6.38;;;;;;;29.72;49.86;100315.50;3592338;40;20053;-72
2021/07/28 06:37:00;;;;;;;12.95;6.85;;;;;;;29.77;48.65;100312.41;3687663;22;20030;-72
2021/07/28 06:49:45;;;;;;;13.52;7.60;;;;;;;30.55;46.25;100305.91;3610095;23;20057;-73
2021/07/28 06:54:40;;;;;;;16.05;10.90;;;;;;;30.49;44.07;100309.19;3592142;40;20120;-73
2021/07/28 06:59:59;;;;;;;22.80;12.80;;;;;;;30.73;43.54;100306.56;3604398;23;20038;-73
2021/07/28 07:07:42;;;;;;;11.50;7.53;;;;;;;31.45;41.70;100295.22;3610421;22;20107;-72
2021/07/28 07:10:08;;;;;;;19.38;11.20;;;;;;;31.30;40.80;100300.31;3600500;40;20053;-72
2021/07/28 07:32:44;;;;;;;7.97;4.43;;;;;;;32.15;38.25;100298.72;3570661;40;20113;-70
2021/07/28 07:35:10;;;;;;;10.85;5.30;;;;;;;31.79;39.23;100301.03;3572556;40;20046;-71
2021/07/28 07:37:36;;;;;;;10.02;4.97;;;;;;;32.02;37.94;100301.09;3568769;40;20125;-72
2021/07/28 07:50:26;;;;;;;6.20;4.40;;;;;;;32.32;38.44;100298.47;3667681;23;20654;-74
2021/07/28 08:03:06;;;;;;;6.32;4.80;;;;;;;32.32;37.97;100287.94;3581039;40;20104;-72
2021/07/28 08:05:34;;;;;;;8.57;4.45;;;;;;;32.67;36.92;100283.91;3580765;40;20053;-73
2021/07/28 08:08:00;;;;;;;6.57;4.30;;;;;;;33.12;37.33;100290.94;3579467;40;20040;-72
2021/07/28 08:10:26;;;;;;;5.97;4.28;;;;;;;33.24;37.26;100295.56;3578581;40;20033;-72
2021/07/28 08:12:51;;;;;;;9.70;4.60;;;;;;;34.03;36.64;100280.84;3578334;40;20311;-73
2021/07/28 08:15:18;;;;;;;12.32;5.03;;;;;;;33.44;36.52;100287.94;3579439;40;20061;-72
2021/07/28 08:17:45;;;;;;;9.60;4.57;;;;;;;33.90;35.72;100280.63;3578898;40;20030;-71
2021/07/28 08:20:12;;;;;;;11.75;5.05;;;;;;;32.88;36.78;100273.50;3579856;40;20034;-71
2021/07/28 08:22:37;;;;;;;16.80;4.97;;;;;;;33.31;35.97;100274.59;3580784;40;20363;-73
2021/07/28 08:25:04;;;;;;;7.57;4.50;;;;;;;33.92;35.86;100268.91;3581279;40;20033;-73
2021/07/28 08:27:30;;;;;;;7.50;4.60;;;;;;;34.20;35.03;100269.03;3572226;40;20069;-71
2021/07/28 08:29:57;;;;;;;11.27;4.57;;;;;;;33.68;35.66;100271.03;3580558;40;20308;-72
2021/07/28 08:32:27;;;;;;;8.90;4.68;;;;;;;33.73;35.43;100266.84;3573396;40;20041;-72
2021/07/28 08:42:19;;;;;;;14.00;4.95;;;;;;;33.92;35.71;100252.22;3590839;40;20104;-72
2021/07/28 08:44:47;;;;;;;7.15;4.22;;;;;;;34.18;34.68;100236.69;3592032;39;20039;-73
2021/07/28 08:47:17;;;;;;;11.05;4.60;;;;;;;34.30;35.26;100244.94;3591940;39;20025;-73
2021/07/28 08:49:44;;;;;;;8.15;4.88;;;;;;;34.91;33.67;100238.97;3589683;39;20037;-71
2021/07/28 08:52:10;;;;;;;8.00;4.60;;;;;;;34.96;35.28;100243.69;3591804;40;20033;-72
2021/07/28 08:54:36;;;;;;;7.18;4.40;;;;;;;35.31;33.69;100243.50;3591688;40;20040;-73
2021/07/28 08:57:02;;;;;;;12.88;4.90;;;;;;;35.23;33.76;100248.97;3580871;40;20453;-72
2021/07/28 09:01:57;;;;;;;8.18;4.70;;;;;;;34.71;33.83;100240.63;3590966;40;20069;-76
2021/07/28 09:04:25;;;;;;;7.28;4.82;;;;;;;35.15;33.16;100238.53;3591240;40;20041;-71
2021/07/28 09:06:53;;;;;;;9.55;4.97;;;;;;;35.34;33.75;100234.38;3591399;40;20424;-72
2021/07/28 09:09:26;;;;;;;10.93;5.20;;;;;;;35.67;33.28;100227.41;3590569;40;20037;-74
2021/07/28 09:12:00;;;;;;;8.02;4.80;;;;;;;36.06;32.70;100234.66;3590353;40;20041;-71
2021/07/28 09:14:36;;;;;;;12.07;5.13;;;;;;;35.48;33.63;100223.66;3590243;40;20033;-72
2021/07/28 09:17:15;;;;;;;9.25;4.93;;;;;;;35.45;33.90;100225.91;3590698;40;20475;-75
2021/07/28 09:19:46;;;;;;;10.38;4.78;;;;;;;35.99;34.24;100215.31;3590004;40;20346;-73
2021/07/28 09:22:13;;;;;;;13.77;5.32;;;;;;;35.82;33.67;100224.59;3590096;40;20045;-75
2021/07/28 09:24:41;;;;;;;7.50;4.80;;;;;;;35.66;33.18;100218.66;3589224;40;20115;-73
2021/07/28 09:27:07;;;;;;;8.38;5.00;;;;;;;35.27;34.95;100207.88;3589343;40;20045;-75
2021/07/28 09:29:38;;;;;;;9.35;4.80;;;;;;;35.64;32.70;100214.56;3606464;40;20085;-70
2021/07/28 09:32:09;;;;;;;7.32;4.80;;;;;;;36.12;31.79;100202.06;3597409;40;20096;-71
2021/07/28 09:34:34;;;;;;;;;;;;;;;35.74;33.59;100201.75;3589371;40;20037;-72
2021/07/28 09:37:14;;;;;;;8.65;5.40;;;;;;;36.11;32.77;100200.44;3605500;40;19951;-73
2021/07/28 09:39:44;;;;;;;8.48;6.03;;;;;;;35.68;32.12;100203.38;3590129;40;20046;-73
2021/07/28 09:42:25;;;;;;;7.80;5.40;;;;;;;35.79;32.17;100194.03;3591268;40;20239;-74
2021/07/28 09:44:56;;;;;;;10.10;5.45;;;;;;;35.91;32.24;100199.56;3591282;40;20102;-72
2021/07/28 09:47:37;;;;;;;8.73;5.10;;;;;;;36.58;32.94;100194.97;3591415;40;20040;-73
2021/07/28 09:50:08;;;;;;;11.13;5.70;;;;;;;36.38;32.14;100194.97;3590511;40;20041;-73
2021/07/28 09:52:34;;;;;;;9.93;5.38;;;;;;;36.08;30.92;100192.88;3589388;40;20033;-73
2021/07/28 09:55:29;;;;;;;10.27;5.68;;;;;;;36.61;31.55;100186.59;3606572;40;20028;-74
2021/07/28 09:57:59;;;;;;;11.90;5.50;;;;;;;35.69;32.63;100188.31;3597280;40;20045;-72
2021/07/28 10:00:28;;;;;;;10.80;5.65;;;;;;;35.62;33.00;100177.69;3586144;40;20045;-71
2021/07/28 10:03:01;;;;;;;9.18;5.40;;;;;;;37.08;31.28;100186.31;3588533;40;20041;-73
2021/07/28 10:05:28;;;;;;;7.18;5.57;;;;;;;36.67;32.59;100185.78;3589649;40;20040;-73
2021/07/28 10:08:00;;;;;;;8.57;5.68;;;;;;;36.64;32.59;100175.59;3590541;40;20041;-72
2021/07/28 10:10:26;;;;;;;9.50;5.45;;;;;;;36.82;32.02;100180.25;3589976;40;20347;-71
2021/07/28 10:12:53;;;;;;;11.52;5.78;;;;;;;36.39;31.46;100182.50;3590061;40;20364;-72
2021/07/28 10:15:20;;;;;;;10.70;6.30;;;;;;;36.94;30.98;100173.31;3590913;40;20033;-72
2021/07/28 10:17:46;;;;;;;14.05;7.53;;;;;;;37.11;31.42;100175.28;3590527;40;20114;-73
2021/07/28 10:20:13;;;;;;;9.98;5.55;;;;;;;36.61;30.41;100177.84;3590855;40;20048;-74
2021/07/28 10:22:40;;;;;;;13.73;6.00;;;;;;;36.73;30.74;100169.03;3591112;40;20089;-72
2021/07/28 10:25:16;;;;;;;12.85;6.03;;;;;;;37.53;30.20;100157.97;3590922;40;20033;-73
2021/07/28 10:27:50;;;;;;;10.82;5.82;;;;;;;37.11;30.53;100154.06;3589981;40;20033;-74
2021/07/28 10:30:20;;;;;;;6.30;5.70;;;;;;;36.69;30.93;100151.13;3569088;40;20042;-71
2021/07/28 10:32:48;;;;;;;9.63;5.85;;;;;;;37.18;30.54;100154.06;3568784;40;20030;-74
2021/07/28 10:35:21;;;;;;;12.07;5.97;;;;;;;37.02;29.78;100150.00;3568814;40;20037;-72
2021/07/28 10:37:52;;;;;;;10.77;5.68;;;;;;;37.52;30.32;100150.25;3568507;40;20120;-72
2021/07/28 10:40:24;;;;;;;10.25;5.88;;;;;;;37.05;30.01;100151.44;3569215;40;20070;-71
2021/07/28 10:42:49;;;;;;;10.20;5.45;;;;;;;36.78;30.56;100149.84;3569788;40;20054;-72
2021/07/28 10:45:18;;;;;;;7.63;5.65;;;;;;;36.81;30.68;100147.59;3569068;40;20041;-72
2021/07/28 10:47:44;;;;;;;11.73;6.20;;;;;;;37.36;29.74;100138.25;3570006;40;20130;-72
2021/07/28 10:50:22;;;;;;;9.20;5.70;;;;;;;38.46;29.38;100138.53;3569353;40;20038;-72
2021/07/28 10:52:56;;;;;;;12.75;6.40;;;;;;;37.71;28.89;100138.66;3570063;40;20025;-73
2021/07/28 10:55:32;;;;;;;13.80;5.80;;;;;;;37.83;29.78;100131.69;3569264;40;20112;-72
2021/07/28 11:03:14;;;;;;;17.27;5.82;;;;;;;37.95;28.28;100122.81;3588040;40;20065;-73
2021/07/28 11:05:43;;;;;;;17.38;5.85;;;;;;;37.47;29.46;100134.13;3588813;40;20037;-72
2021/07/28 11:08:12;;;;;;;11.15;5.65;;;;;;;37.82;27.97;100127.38;3589772;40;20041;-73
2021/07/28 11:10:37;;;;;;;11.32;6.00;;;;;;;37.29;28.75;100129.50;3590130;40;20041;-71
2021/07/28 11:13:08;;;;;;;12.13;5.95;;;;;;;37.74;28.53;100131.09;3590689;40;20037;-72
2021/07/28 11:15:34;;;;;;;13.38;6.30;;;;;;;38.19;28.90;100123.81;3598746;40;20143;-73
2021/07/28 11:18:01;;;;;;;14.55;6.05;;;;;;;37.76;28.88;100128.22;3590728;40;20049;-72
2021/07/28 11:20:47;;;;;;;15.20;5.78;;;;;;;38.88;27.98;100121.72;3589802;40;20029;-73
2021/07/28 11:23:29;;;;;;;16.98;5.95;;;;;;;37.90;27.23;100119.16;3577635;40;20045;-71
2021/07/28 11:25:57;;;;;;;13.90;6.07;;;;;;;38.19;27.35;100113.19;3588932;40;20087;-72
2021/07/28 11:28:24;;;;;;;9.23;5.90;;;;;;;37.87;27.49;100112.44;3588130;40;20418;-73
2021/07/28 11:31:00;;;;;;;12.90;5.90;;;;;;;38.24;28.00;100116.03;3588650;40;20037;-73
2021/07/28 11:33:29;;;;;;;16.88;5.82;;;;;;;38.50;26.16;100110.47;3588808;40;20033;-72
2021/07/28 11:35:59;;;;;;;11.80;6.00;;;;;;;38.53;26.37;100106.56;3588343;40;20072;-73
2021/07/28 11:38:37;;;;;;;15.60;6.03;;;;;;;39.13;25.36;100107.50;3589541;40;20036;-74
2021/07/28 11:41:09;;;;;;;16.25;6.07;;;;;;;38.82;27.59;100111.97;3589134;40;20435;-73
2021/07/28 11:43:44;;;;;;;12.10;5.93;;;;;;;39.51;26.92;100108.84;3589100;40;20371;-72
2021/07/28 11:46:18;;;;;;;11.35;5.75;;;;;;;38.04;27.25;100112.69;3589402;40;20045;-73
2021/07/28 11:48:52;;;;;;;13.13;6.30;;;;;;;38.75;27.62;100102.44;3589909;40;20040;-72
2021/07/28 11:51:31;;;;;;;14.93;6.40;;;;;;;39.31;26.19;100102.16;3589739;40;20080;-73
2021/07/28 11:54:17;;;;;;;18.42;8.45;;;;;;;38.08;27.56;100092.63;3589678;40;20051;-73
2021/07/28 11:56:53;;;;;;;16.75;6.45;;;;;;;39.19;26.58;100083.47;3590361;40;20040;-71
2021/07/28 11:59:25;;;;;;;14.52;6.25;;;;;;;38.82;26.05;100087.22;3597968;40;20037;-73
2021/07/28 12:02:05;;;;;;;15.23;6.35;;;;;;;38.76;26.75;100091.59;3589615;40;20033;-72
2021/07/28 12:04:32;;;;;;;14.65;6.63;;;;;;;38.52;26.80;100073.81;3589443;40;20045;-73
2021/07/28 12:07:27;;;;;;;13.30;5.93;;;;;;;38.80;26.41;100081.31;3589483;40;20036;-73
2021/07/28 12:09:58;;;;;;;13.55;6.30;;;;;;;38.36;26.02;100078.91;3559661;40;20098;-71
2021/07/28 12:12:26;;;;;;;15.75;6.53;;;;;;;37.92;27.08;100059.47;3558858;40;20034;-75
2021/07/28 12:15:10;;;;;;;10.23;5.70;;;;;;;39.40;26.50;100064.31;3549091;40;20099;-73
2021/07/28 12:17:36;;;;;;;17.08;7.45;;;;;;;38.57;26.73;100058.00;3558067;40;20253;-73
2021/07/28 12:20:05;;;;;;;25.58;8.40;;;;;;;38.76;26.27;100057.00;3558575;40;20042;-73
2021/07/28 12:22:39;;;;;;;13.95;7.10;;;;;;;38.18;26.67;100053.91;3559792;40;20038;-72
2021/07/28 12:25:25;;;;;;;12.30;7.60;;;;;;;39.76;27.67;100050.88;3559490;40;20022;-72
2021/07/28 12:27:56;;;;;;;18.58;7.35;;;;;;;39.56;25.79;100053.03;3559883;40;20113;-72
2021/07/28 12:30:38;;;;;;;18.88;7.22;;;;;;;39.27;27.15;100045.88;3560251;40;20416;-73
2021/07/28 12:33:03;;;;;;;14.82;7.72;;;;;;;38.59;27.00;100047.94;3550482;40;20043;-73
2021/07/28 12:35:41;;;;;;;15.73;7.78;;;;;;;39.33;26.58;100044.97;3558401;40;20045;-71
2021/07/28 12:38:13;;;;;;;16.13;7.43;;;;;;;38.87;26.47;100042.09;3568018;40;20058;-73
2021/07/28 12:40:46;;;;;;;17.20;7.97;;;;;;;38.62;27.53;100038.72;3568091;40;20026;-71
2021/07/28 12:43:14;;;;;;;17.52;7.63;;;;;;;38.42;27.43;100046.94;3559794;40;20038;-72
2021/07/28 12:45:42;;;;;;;16.55;7.47;;;;;;;38.77;26.65;100039.16;3566924;40;20048;-72
2021/07/28 12:48:10;;;;;;;13.60;7.20;;;;;;;39.65;26.69;100040.22;3585824;40;20029;-71
2021/07/28 12:50:39;;;;;;;13.82;7.13;;;;;;;38.64;26.85;100042.78;3584167;40;20038;-73
2021/07/28 12:53:05;;;;;;;14.57;7.32;;;;;;;39.39;25.77;100032.59;3585671;40;20037;-74
2021/07/28 13:01:10;;;;;;;17.30;6.97;;;;;;;39.13;26.13;100025.00;3600437;39;20033;-73
2021/07/28 13:03:36;;;;;;;12.95;6.78;;;;;;;38.26;27.27;100020.94;3579715;40;20093;-72
2021/07/28 13:06:09;;;;;;;15.00;7.25;;;;;;;38.50;26.65;100014.72;3589868;40;20036;-75
2021/07/28 13:08:35;;;;;;;15.18;7.22;;;;;;;39.23;25.77;100014.63;3590312;40;20139;-71
2021/07/28 13:11:01;;;;;;;13.23;7.30;;;;;;;38.29;26.47;100011.72;3590163;40;20049;-70
2021/07/28 13:13:27;;;;;;;16.10;6.45;;;;;;;39.61;26.41;100010.56;3589984;40;20025;-73
2021/07/28 13:15:59;;;;;;;19.15;6.82;;;;;;;39.33;25.67;100006.88;3589643;40;20036;-72
2021/07/28 13:18:25;;;;;;;16.85;7.45;;;;;;;39.01;26.22;99998.31;3589827;40;20061;-73
2021/07/28 13:20:52;;;;;;;15.35;6.63;;;;;;;39.37;26.17;100006.22;3591002;40;20029;-72
2021/07/28 13:23:18;;;;;;;16.63;6.75;;;;;;;38.62;27.11;99994.31;3591398;40;20315;-73
2021/07/28 13:25:45;;;;;;;17.10;6.95;;;;;;;38.70;27.30;99996.72;3591554;40;20029;-72
2021/07/28 13:28:12;;;;;;;14.63;7.72;;;;;;;38.17;27.39;99996.44;3591848;40;20021;-72
2021/07/28 13:30:37;;;;;;;18.30;7.07;;;;;;;38.95;26.87;99994.72;3582634;40;20044;-73
2021/07/28 13:33:05;;;;;;;17.98;6.78;;;;;;;38.80;26.49;99993.50;3591789;40;20021;-73
2021/07/28 13:35:30;;;;;;;16.63;7.10;;;;;;;39.04;26.47;99992.56;3592203;40;20065;-73
2021/07/28 13:37:56;;;;;;;11.52;7.25;;;;;;;38.95;26.50;99986.75;3592101;40;20040;-70
2021/07/28 13:40:23;;;;;;;13.80;7.22;;;;;;;39.10;26.22;99990.88;3591905;40;20033;-73
2021/07/28 13:42:53;;;;;;;17.88;6.95;;;;;;;39.03;25.42;99978.44;3581721;40;20022;-73
2021/07/28 13:45:21;;;;;;;19.98;7.03;;;;;;;39.33;25.26;99980.25;3591250;40;20032;-71
2021/07/28 13:47:48;;;;;;;12.95;7.25;;;;;;;39.34;25.60;99976.56;3591535;40;20407;-73
2021/07/28 13:50:16;;;;;;;13.50;7.38;;;;;;;39.08;25.89;99982.25;3589957;40;20421;-72
2021/07/28 13:52:47;;;;;;;19.55;7.50;;;;;;;39.71;26.20;99981.50;3590400;40;20060;-71
2021/07/28 13:55:17;;;;;;;;;;;;;;;39.34;26.12;99987.22;3590282;40;20328;-74
2021/07/28 13:57:44;;;;;;;17.42;7.05;;;;;;;39.42;27.02;99970.91;3588265;40;19937;-71
2021/07/28 14:00:13;;;;;;;16.13;7.05;;;;;;;38.98;27.45;99970.31;3588275;40;20155;-72
2021/07/28 14:06:01;;;;;;;15.25;7.60;;;;;;;39.48;26.64;99968.13;3596667;40;20419;-71
2021/07/28 14:08:28;;;;;;;15.15;7.40;;;;;;;39.05;25.90;99962.22;3585961;40;20049;-71
2021/07/28 14:13:54;;;;;;;13.93;6.40;;;;;;;39.00;25.43;99951.47;3669931;23;20052;-71
2021/07/28 14:16:22;;;;;;;;;;;;;;;39.34;25.47;99952.59;3582357;40;20032;-73
2021/07/28 14:18:48;;;;;;;18.85;6.72;;;;;;;38.59;26.04;99946.09;3583288;40;19949;-72